Time;durP1;ratioP1;P1;durP2;ratioP2;P2;SDS_P1;SDS_P2;PMS_P1;PMS_P2;Temp;Humidity;BMP_temperature;BMP_pressure;BME280_temperature;BME280_humidity;BME280_pressure;Samples;Min_cycle;Max_cycle;Signal;HPM_P1;HPM_P2
2022/03/29 00:02:13;;;;;;;;;31.75;29.75;;;;;18.78;32.17;100635.91;4768793;29;45827;-79
2022/03/29 00:04:38;;;;;;;;;35.25;30.25;;;;;18.77;32.57;100626.25;4769528;29;45636;-79
2022/03/29 00:07:04;;;;;;;;;36.00;30.00;;;;;18.75;32.37;100622.94;4769633;29;45750;-78
2022/03/29 00:09:29;;;;;;;;;30.50;29.00;;;;;18.73;32.06;100611.66;4769521;29;45637;-79
2022/03/29 00:11:55;;;;;;;;;31.75;29.00;;;;;18.73;32.07;100614.31;4770675;29;45661;-78
2022/03/29 00:14:20;;;;;;;;;33.75;30.75;;;;;18.67;32.20;100602.53;4770483;29;45585;-77
2022/03/29 00:16:46;;;;;;;;;32.50;27.50;;;;;18.70;32.27;100609.31;4753917;29;45836;-79
2022/03/29 00:19:11;;;;;;;;;34.00;31.00;;;;;18.67;32.21;100605.19;4768826;29;45728;-77
2022/03/29 00:21:37;;;;;;;;;33.00;29.75;;;;;18.63;32.77;100593.19;4769024;29;45579;-78
2022/03/29 00:27:24;;;;;;;;;42.25;30.50;;;;;18.61;32.78;100587.25;4769674;29;45568;-79
2022/03/29 00:29:50;;;;;;;;;32.50;25.25;;;;;18.58;32.94;100590.19;4769006;29;45522;-79
2022/03/29 00:32:15;;;;;;;;;41.50;31.75;;;;;18.52;32.64;100585.50;4767944;29;46061;-78
2022/03/29 00:34:42;;;;;;;;;38.25;31.00;;;;;18.53;32.69;100583.69;4768114;29;45550;-78
2022/03/29 00:37:08;;;;;;;;;35.50;31.00;;;;;18.46;33.09;100579.00;4767949;29;45735;-82
2022/03/29 00:39:33;;;;;;;;;40.25;33.00;;;;;18.42;32.92;100572.38;4767688;29;46595;-79
2022/03/29 00:42:00;;;;;;;;;37.00;32.75;;;;;18.40;33.05;100577.03;4751053;29;46187;-79
2022/03/29 00:44:33;;;;;;;;;37.00;31.00;;;;;18.37;33.12;100569.38;4768077;29;45712;-81
2022/03/29 00:47:00;;;;;;;;;33.25;27.75;;;;;18.37;33.37;100565.88;4768496;29;45753;-80
2022/03/29 00:49:27;;;;;;;;;37.25;31.00;;;;;18.35;33.16;100551.97;4767669;29;45852;-79
2022/03/29 00:51:57;;;;;;;;;42.00;30.75;;;;;18.31;33.17;100554.09;4767717;29;46035;-78
2022/03/29 00:57:46;;;;;;;;;31.50;27.50;;;;;18.24;33.47;100539.81;4767435;29;45504;-79
2022/03/29 01:00:15;;;;;;;;;47.00;32.75;;;;;18.23;33.19;100539.97;4767499;29;46299;-80
2022/03/29 01:02:41;;;;;;;;;40.00;31.00;;;;;18.22;33.66;100540.97;4751034;29;47280;-79
2022/03/29 01:05:07;;;;;;;;;42.00;32.75;;;;;18.19;33.77;100533.34;4767218;29;45616;-80
2022/03/29 01:07:33;;;;;;;;;36.25;31.00;;;;;18.17;33.59;100527.34;4768641;29;45718;-79
2022/03/29 01:10:00;;;;;;;;;43.50;33.25;;;;;18.14;33.77;100530.34;4753890;29;47022;-79
2022/03/29 01:12:29;;;;;;;;;38.75;32.50;;;;;18.12;33.56;100522.53;4770449;29;46018;-79
2022/03/29 01:14:54;;;;;;;;;42.25;31.25;;;;;18.11;33.55;100520.03;4770386;29;46006;-81
2022/03/29 01:20:25;;;;;;;;;30.75;24.25;;;;;18.08;33.67;100513.25;4697183;30;46406;-79
2022/03/29 01:22:52;;;;;;;;;38.75;32.75;;;;;18.05;33.51;100510.91;4697385;30;46087;-79
2022/03/29 01:25:22;;;;;;;;;35.75;31.25;;;;;18.05;33.45;100513.53;4697280;30;45729;-81
2022/03/29 01:27:50;;;;;;;;;10.50;5.75;;;;;18.06;33.55;100514.38;4697409;30;45688;-81
2022/03/29 01:30:17;;;;;;;;;38.25;30.75;;;;;18.01;33.53;100501.59;4682500;30;47697;-79
2022/03/29 01:32:47;;;;;;;;;31.75;30.25;;;;;18.03;33.52;100512.84;4697449;30;46366;-79
2022/03/29 01:35:15;;;;;;;;;32.00;28.25;;;;;18.00;33.47;100506.06;4682532;30;46104;-79
2022/03/29 01:37:41;;;;;;;;;33.50;29.75;;;;;18.01;33.79;100501.59;4697284;30;45688;-79
2022/03/29 01:43:28;;;;;;;;;29.00;27.50;;;;;18.01;33.61;100496.31;4695084;30;46358;-81
2022/03/29 01:45:53;;;;;;;;;30.25;26.50;;;;;17.97;33.62;100487.00;4697145;30;45850;-79
2022/03/29 01:48:19;;;;;;;;;32.50;30.75;;;;;17.97;33.59;100484.38;4698560;30;45894;-82
2022/03/29 01:50:45;;;;;;;;;29.50;27.50;;;;;17.96;33.18;100490.66;4704571;30;46325;-80
2022/03/29 01:53:22;;;;;;;;;28.75;24.25;;;;;17.93;33.27;100480.34;4705530;29;46239;-82
2022/03/29 01:55:47;;;;;;;;;30.50;27.00;;;;;17.90;33.13;100481.50;4774863;29;45924;-82
2022/03/29 01:58:13;;;;;;;;;35.50;28.50;;;;;17.92;33.17;100478.72;4771291;29;45745;-80
2022/03/29 02:00:41;;;;;;;;;29.00;27.75;;;;;17.87;33.24;100471.22;4770233;29;45554;-81
2022/03/29 02:03:09;;;;;;;;;27.25;23.75;;;;;17.84;32.81;100463.59;4769640;29;47383;-78
2022/03/29 02:05:34;;;;;;;;;32.75;26.50;;;;;17.83;32.97;100458.44;4753449;29;46069;-79
2022/03/29 02:08:01;;;;;;;;;29.50;24.50;;;;;17.80;33.04;100453.47;4769645;29;45655;-78
2022/03/29 02:10:26;;;;;;;;;30.25;26.75;;;;;17.82;32.76;100454.13;4769764;29;45708;-81
2022/03/29 02:12:52;;;;;;;;;33.25;25.00;;;;;17.82;32.84;100443.53;4769943;29;45723;-79
2022/03/29 02:15:18;;;;;;;;;21.75;21.75;;;;;17.80;32.69;100445.53;4769693;29;45734;-79
2022/03/29 02:17:45;;;;;;;;;26.25;24.50;;;;;17.79;32.85;100438.56;4769694;29;45595;-80
2022/03/29 02:20:13;;;;;;;;;24.75;23.75;;;;;17.80;32.69;100434.91;4768666;29;45656;-78
2022/03/29 02:22:39;;;;;;;;;29.75;27.25;;;;;17.79;32.62;100436.75;4769320;29;45876;-80
2022/03/29 02:28:26;;;;;;;;;29.75;24.00;;;;;17.78;32.82;100424.47;4769387;29;45516;-82
2022/03/29 02:30:52;;;;;;;;;29.25;25.75;;;;;17.77;32.10;100424.63;4753023;29;46060;-80
2022/03/29 02:33:17;;;;;;;;;31.25;23.25;;;;;17.76;32.14;100425.63;4769467;29;45717;-81
2022/03/29 02:35:43;;;;;;;;;29.00;23.75;;;;;17.74;32.08;100422.31;4769417;29;45779;-81
2022/03/29 02:38:11;;;;;;;;;29.75;23.50;;;;;17.74;32.34;100409.06;4769268;29;45895;-79
2022/03/29 02:43:58;;;;;;;;;27.75;24.25;;;;;17.73;32.12;100394.97;4768406;29;45831;-79
2022/03/29 02:46:23;;;;;;;;;25.75;23.75;;;;;17.70;31.86;100382.06;4769495;29;45715;-80
2022/03/29 02:48:49;;;;;;;;;33.25;30.50;;;;;17.70;31.73;100390.00;4769405;29;45648;-78
2022/03/29 02:51:17;;;;;;;;;25.25;22.75;;;;;17.71;31.75;100404.06;4769443;29;45742;-82
2022/03/29 02:53:43;;;;;;;;;27.00;23.50;;;;;17.66;31.55;100395.75;4769232;29;46115;-79
2022/03/29 02:56:08;;;;;;;;;31.75;27.75;;;;;17.67;31.92;100395.59;4752811;29;45663;-82
2022/03/29 02:58:34;;;;;;;;;30.75;26.00;;;;;17.66;31.77;100380.69;4769246;29;45582;-81
2022/03/29 03:00:59;;;;;;;;;34.50;29.25;;;;;17.67;32.40;100379.72;4769275;29;46474;-82
2022/03/29 03:03:26;;;;;;;;;31.50;28.25;;;;;17.62;31.85;100382.00;4769370;29;46004;-81
2022/03/29 03:05:51;;;;;;;;;30.75;27.00;;;;;17.67;32.17;100387.66;4769198;29;45909;-79
2022/03/29 03:08:17;;;;;;;;;25.00;25.00;;;;;17.66;32.66;100386.00;4769041;29;45654;-81
2022/03/29 03:14:04;;;;;;;;;31.00;29.25;;;;;17.66;32.58;100374.56;4769114;29;45983;-79
2022/03/29 03:16:29;;;;;;;;;34.00;28.25;;;;;17.61;32.51;100359.16;4769387;29;45658;-80
2022/03/29 03:18:56;;;;;;;;;35.75;30.75;;;;;17.62;33.26;100368.75;4769860;29;45599;-80
2022/03/29 03:21:21;;;;;;;;;28.75;25.25;;;;;17.58;32.77;100362.09;4770686;29;45598;-81
2022/03/29 03:30:30;;;;;;;;;30.25;25.50;;;;;17.46;33.01;100363.38;4769335;29;45816;-78
2022/03/29 03:32:56;;;;;;;;;30.00;26.50;;;;;17.41;33.28;100363.00;4753287;29;47105;-80
2022/03/29 03:35:21;;;;;;;;;32.25;27.50;;;;;17.39;33.12;100362.34;4769863;29;45948;-81
2022/03/29 03:37:48;;;;;;;;;28.25;27.00;;;;;17.35;33.41;100353.88;4769960;29;45668;-81
2022/03/29 03:40:13;;;;;;;;;33.25;26.75;;;;;17.30;33.04;100344.75;4769554;29;45582;-80
2022/03/29 03:42:40;;;;;;;;;31.50;26.50;;;;;17.28;33.33;100349.38;4752322;29;47914;-78
2022/03/29 03:45:07;;;;;;;;;30.25;24.00;;;;;17.24;33.34;100340.09;4752203;29;47580;-80
2022/03/29 03:47:32;;;;;;;;;31.75;31.00;;;;;17.19;32.88;100336.09;4769247;29;46105;-78
2022/03/29 03:49:58;;;;;;;;;29.50;23.75;;;;;17.14;32.81;100338.41;4768948;29;45561;-80
2022/03/29 03:52:23;;;;;;;;;27.25;24.75;;;;;17.13;33.48;100335.91;4769211;29;46340;-78
2022/03/29 03:54:49;;;;;;;;;32.25;27.00;;;;;17.12;33.27;100329.78;4768673;29;45849;-78
2022/03/29 03:57:14;;;;;;;;;31.25;26.50;;;;;17.07;33.12;100329.41;4768480;29;46247;-79
2022/03/29 03:59:40;;;;;;;;;30.00;25.50;;;;;17.03;33.04;100324.59;4769536;29;45954;-77
2022/03/29 04:02:06;;;;;;;;;25.25;23.00;;;;;16.97;33.22;100315.47;4768990;29;45664;-77
2022/03/29 04:04:31;;;;;;;;;25.00;23.25;;;;;16.92;33.13;100316.94;4768990;29;46656;-79
2022/03/29 04:06:57;;;;;;;;;26.50;24.75;;;;;16.91;33.04;100315.25;4752521;29;46085;-80
2022/03/29 04:09:22;;;;;;;;;23.25;20.00;;;;;16.85;32.85;100313.25;4768322;29;45775;-81
2022/03/29 04:11:48;;;;;;;;;26.75;20.00;;;;;16.85;32.93;100318.53;4768684;29;45575;-79
2022/03/29 04:14:14;;;;;;;;;23.25;22.00;;;;;16.77;32.94;100306.09;4767592;29;45877;-78
2022/03/29 04:16:40;;;;;;;;;22.25;19.75;;;;;16.77;33.39;100324.63;4768050;29;45987;-78
2022/03/29 04:19:06;;;;;;;;;24.25;20.75;;;;;16.71;33.45;100320.78;4768099;29;45675;-80
2022/03/29 04:21:31;;;;;;;;;21.75;19.75;;;;;16.69;33.13;100319.25;4768002;29;45844;-80
2022/03/29 04:23:57;;;;;;;;;21.75;19.25;;;;;16.65;33.30;100321.41;4768027;29;46340;-79
2022/03/29 04:29:45;;;;;;;;;23.00;20.00;;;;;16.58;33.98;100324.78;4767859;29;45613;-82
2022/03/29 04:32:10;;;;;;;;;22.50;21.00;;;;;16.52;33.71;100320.94;4751365;29;47336;-81
2022/03/29 04:34:36;;;;;;;;;21.75;18.50;;;;;16.46;33.57;100304.88;4767553;29;45667;-80
2022/03/29 04:37:01;;;;;;;;;21.25;20.25;;;;;16.48;34.17;100306.34;4767870;29;45592;-79
2022/03/29 04:39:27;;;;;;;;;22.25;19.00;;;;;16.47;34.14;100312.63;4767780;29;45645;-81
2022/03/29 04:41:52;;;;;;;;;21.25;20.00;;;;;16.44;34.28;100301.53;4767608;29;45602;-79
2022/03/29 04:44:17;;;;;;;;;23.00;20.00;;;;;16.41;34.51;100296.56;4767700;29;45692;-79
2022/03/29 04:46:43;;;;;;;;;23.50;19.00;;;;;16.42;34.43;100309.63;4767617;29;45606;-79
2022/03/29 04:49:08;;;;;;;;;23.25;19.50;;;;;16.40;34.31;100306.31;4767741;29;45856;-81
2022/03/29 04:51:34;;;;;;;;;23.50;18.75;;;;;16.43;34.41;100310.44;4767752;29;46242;-81
2022/03/29 04:54:01;;;;;;;;;24.75;22.25;;;;;16.42;34.86;100299.03;4767680;29;46142;-81
2022/03/29 04:59:48;;;;;;;;;25.25;22.50;;;;;16.38;34.76;100298.53;4767988;29;45653;-81
2022/03/29 05:02:14;;;;;;;;;33.25;24.50;;;;;16.34;34.95;100306.94;4767502;29;46877;-79
2022/03/29 05:04:40;;;;;;;;;25.50;21.75;;;;;16.37;34.78;100322.47;4767217;29;45860;-81
2022/03/29 05:07:05;;;;;;;;;27.25;21.50;;;;;16.33;35.08;100321.13;4767375;29;45798;-82
2022/03/29 05:09:31;;;;;;;;;24.50;22.25;;;;;16.31;34.94;100308.03;4767560;29;46267;-78
2022/03/29 05:15:20;;;;;;;;;23.25;20.75;;;;;16.28;35.13;100312.81;4767056;29;45936;-79
2022/03/29 05:17:46;;;;;;;;;23.75;19.75;;;;;16.28;34.98;100310.19;4767262;29;45805;-78
2022/03/29 05:20:13;;;;;;;;;25.50;17.50;;;;;16.29;35.18;100317.13;4767476;29;45588;-80
2022/03/29 05:22:49;;;;;;;;;20.25;17.75;;;;;16.27;35.25;100303.22;4767189;29;46396;-78
2022/03/29 05:25:17;;;;;;;;;32.50;26.00;;;;;16.25;35.40;100297.25;4767111;29;46055;-79
2022/03/29 05:27:43;;;;;;;;;24.25;23.25;;;;;16.23;35.45;100304.53;4767151;29;45951;-82
2022/03/29 05:30:09;;;;;;;;;21.25;19.75;;;;;16.20;35.52;100296.88;4767354;29;45646;-82
2022/03/29 05:32:34;;;;;;;;;33.25;24.00;;;;;16.19;35.33;100303.16;4767217;29;46296;-82
2022/03/29 05:35:00;;;;;;;;;27.75;22.50;;;;;16.15;35.51;100297.34;4767155;29;46095;-80
2022/03/29 05:37:25;;;;;;;;;26.75;20.50;;;;;16.13;35.28;100282.63;4767049;29;46015;-78
2022/03/29 05:39:51;;;;;;;;;21.75;18.50;;;;;16.09;35.42;100287.38;4767465;29;45575;-80
2022/03/29 05:45:42;;;;;;;;;27.25;23.00;;;;;16.05;35.72;100293.94;4765035;29;46413;-83
2022/03/29 05:50:52;;;;;;;;;26.75;22.50;;;;;16.00;36.04;100275.06;4767313;29;45862;-83
2022/03/29 05:53:18;;;;;;;;;25.50;23.00;;;;;16.01;36.13;100278.56;4767679;29;45844;-78
2022/03/29 05:55:45;;;;;;;;;26.25;22.75;;;;;15.99;36.25;100288.44;4769662;29;46360;-80
2022/03/29 05:58:11;;;;;;;;;24.25;19.25;;;;;15.97;35.91;100288.59;4769910;29;45855;-79
2022/03/29 06:00:37;;;;;;;;;25.25;21.25;;;;;16.00;35.80;100290.09;4770043;29;45795;-79
2022/03/29 06:03:03;;;;;;;;;25.50;23.00;;;;;16.02;36.03;100296.06;4769838;29;46525;-81
2022/03/29 06:05:28;;;;;;;;;24.50;20.75;;;;;16.02;36.18;100277.56;4769765;29;45728;-81
2022/03/29 06:07:54;;;;;;;;;26.25;23.50;;;;;16.05;35.76;100288.66;4769980;29;45701;-80
2022/03/29 06:10:19;;;;;;;;;27.50;22.25;;;;;16.02;36.05;100286.34;4769925;29;46031;-78
2022/03/29 06:12:47;;;;;;;;;24.50;21.25;;;;;16.07;35.73;100299.94;4769554;29;45688;-78
2022/03/29 06:15:13;;;;;;;;;27.50;23.25;;;;;16.08;35.90;100300.75;4752860;29;47124;-82
2022/03/29 06:17:39;;;;;;;;;26.50;24.00;;;;;16.09;35.86;100305.88;4769535;29;45776;-80
2022/03/29 06:20:07;;;;;;;;;23.50;20.25;;;;;16.12;35.66;100304.75;4770179;29;45611;-83
2022/03/29 06:22:39;;;;;;;;;24.75;21.75;;;;;16.13;35.59;100304.59;4769578;29;46899;-80
2022/03/29 06:25:06;;;;;;;;;26.25;25.00;;;;;16.16;35.35;100298.16;4769521;29;45661;-83
2022/03/29 06:30:54;;;;;;;;;35.50;28.00;;;;;16.24;35.30;100314.13;4769747;29;45599;-76
2022/03/29 06:33:20;;;;;;;;;30.25;25.75;;;;;16.27;35.11;100311.16;4769857;29;46371;-78
2022/03/29 06:35:46;;;;;;;;;25.75;22.00;;;;;16.29;35.31;100320.59;4769584;29;46604;-78
2022/03/29 06:38:11;;;;;;;;;49.50;40.25;;;;;16.35;35.24;100324.44;4769489;29;45728;-81
2022/03/29 06:40:37;;;;;;;;;40.75;33.75;;;;;16.35;35.14;100319.16;4769511;29;45712;-82
2022/03/29 06:43:03;;;;;;;;;42.25;33.00;;;;;16.37;35.22;100298.66;4769530;29;47209;-79
2022/03/29 06:45:29;;;;;;;;;31.00;29.25;;;;;16.42;35.15;100303.50;4768957;29;46441;-80
2022/03/29 06:47:54;;;;;;;;;34.00;28.75;;;;;16.48;35.10;100309.00;4769315;29;45730;-79
2022/03/29 06:50:20;;;;;;;;;25.25;22.25;;;;;16.51;35.00;100299.94;4769737;29;45615;-76
2022/03/29 06:52:47;;;;;;;;;25.00;22.50;;;;;16.48;34.88;100295.78;4769560;29;46499;-79
2022/03/29 06:55:16;;;;;;;;;32.00;25.00;;;;;16.56;34.82;100298.50;4769453;29;45680;-78
2022/03/29 07:01:04;;;;;;;;;26.67;24.00;;;;;16.63;34.95;100310.13;4769805;29;45530;-80
2022/03/29 07:03:30;;;;;;;;;26.25;22.75;;;;;16.64;34.85;100306.50;4770833;29;46287;-79
2022/03/29 07:05:58;;;;;;;;;27.75;23.00;;;;;16.65;34.68;100294.09;4770240;29;46258;-79
2022/03/29 07:08:25;;;;;;;;;24.75;21.00;;;;;16.69;34.79;100300.75;4753684;29;45653;-81
2022/03/29 07:13:38;;;;;;;;;30.75;25.00;;;;;16.71;34.52;100283.75;4769696;29;46079;-79
2022/03/29 07:16:05;;;;;;;;;27.75;23.50;;;;;16.77;34.60;100290.22;4769813;29;45680;-79
2022/03/29 07:18:32;;;;;;;;;31.25;22.50;;;;;16.76;34.74;100289.38;4753387;29;45797;-78
2022/03/29 07:20:58;;;;;;;;;22.75;19.00;;;;;16.79;34.66;100291.72;4769517;29;45759;-79
2022/03/29 07:23:24;;;;;;;;;28.50;23.00;;;;;16.83;34.53;100291.41;4769227;29;45617;-78
2022/03/29 07:25:49;;;;;;;;;31.00;26.00;;;;;16.85;34.68;100284.97;4768561;29;45734;-80
2022/03/29 07:28:15;;;;;;;;;25.00;23.50;;;;;16.89;34.63;100288.16;4768896;29;45876;-78
2022/03/29 07:30:41;;;;;;;;;31.00;28.25;;;;;16.92;34.83;100282.53;4768814;29;45819;-77
2022/03/29 07:33:09;;;;;;;;;29.50;25.75;;;;;16.96;34.40;100276.75;4768859;29;45776;-78
2022/03/29 07:35:34;;;;;;;;;28.00;23.00;;;;;16.99;34.72;100275.63;4752150;29;46530;-78
2022/03/29 07:38:02;;;;;;;;;26.75;23.00;;;;;17.00;34.60;100270.19;4768665;29;45850;-78
2022/03/29 07:40:29;;;;;;;;;25.25;22.50;;;;;17.07;34.70;100270.34;4768727;29;45682;-78
2022/03/29 07:46:17;;;;;;;;;26.75;23.25;;;;;17.16;34.32;100270.25;4767393;29;45725;-78
2022/03/29 07:48:42;;;;;;;;;16.00;11.00;;;;;17.18;34.44;100257.66;4752079;29;45833;-77
2022/03/29 07:51:11;;;;;;;;;24.75;23.50;;;;;17.23;34.34;100270.41;4768538;29;45658;-78
2022/03/29 07:53:36;;;;;;;;;28.50;22.50;;;;;17.27;34.35;100274.41;4768399;29;46419;-78
2022/03/29 07:56:02;;;;;;;;;30.00;27.25;;;;;17.32;34.42;100277.41;4768136;29;46207;-78
2022/03/29 08:01:50;;;;;;;;;24.25;22.00;;;;;17.41;34.44;100262.38;4768260;29;45728;-76
2022/03/29 08:04:15;;;;;;;;;27.00;25.00;;;;;17.45;34.59;100258.41;4768091;29;45705;-77
2022/03/29 08:06:41;;;;;;;;;33.50;26.25;;;;;17.48;34.10;100258.09;4768124;29;45703;-76
2022/03/29 08:09:06;;;;;;;;;31.25;24.75;;;;;17.54;34.10;100252.16;4768535;29;45606;-79
2022/03/29 08:11:34;;;;;;;;;37.25;30.25;;;;;17.56;34.07;100258.09;4769279;29;45497;-76
2022/03/29 08:13:59;;;;;;;;;33.25;28.00;;;;;17.58;33.98;100249.00;4767780;29;47506;-77
2022/03/29 08:16:27;;;;;;;;;33.50;28.25;;;;;17.60;34.50;100248.84;4767272;29;46009;-79
2022/03/29 08:18:53;;;;;;;;;28.00;25.00;;;;;17.62;34.30;100249.53;4767897;29;45875;-78
2022/03/29 08:24:02;;;;;;;;;21.25;17.25;;;;;17.62;34.41;100252.19;4767999;29;46113;-76
2022/03/29 08:26:28;;;;;;;;;32.75;29.00;;;;;17.61;34.73;100234.63;4767926;29;46064;-80
2022/03/29 08:28:53;;;;;;;;;32.75;27.50;;;;;17.60;34.41;100230.31;4751757;29;45669;-78
2022/03/29 08:31:19;;;;;;;;;33.75;27.75;;;;;17.61;34.42;100226.69;4768145;29;45697;-76
2022/03/29 08:33:44;;;;;;;;;33.00;29.00;;;;;17.61;34.40;100232.81;4767702;29;45879;-76
2022/03/29 08:36:10;;;;;;;;;33.75;28.25;;;;;17.60;34.97;100225.84;4767908;29;45935;-76
2022/03/29 08:38:35;;;;;;;;;36.50;30.75;;;;;17.65;34.55;100232.50;4767706;29;45696;-76
2022/03/29 08:41:00;;;;;;;;;28.50;27.00;;;;;17.69;34.10;100225.88;4768136;29;45725;-78
2022/03/29 08:46:49;;;;;;;;;33.50;30.50;;;;;17.76;34.54;100217.09;4766603;29;45674;-77
2022/03/29 08:49:17;;;;;;;;;37.50;29.75;;;;;17.80;34.65;100217.59;4767228;29;45657;-78
2022/03/29 08:51:43;;;;;;;;;31.25;27.00;;;;;17.81;34.64;100219.25;4767691;29;45543;-74
2022/03/29 08:54:09;;;;;;;;;33.00;27.50;;;;;17.89;34.86;100213.94;4750843;29;47557;-77
2022/03/29 08:56:35;;;;;;;;;32.00;27.75;;;;;17.92;34.64;100203.03;4767741;29;46154;-83
2022/03/29 08:59:00;;;;;;;;;36.50;31.00;;;;;17.98;34.86;100199.69;4767502;29;45641;-82
2022/03/29 09:01:27;;;;;;;;;34.75;31.00;;;;;18.04;34.56;100204.34;4767917;29;45538;-83
2022/03/29 09:04:07;;;;;;;;;33.00;28.00;;;;;18.10;34.72;100208.97;4767576;29;45770;-83
2022/03/29 09:06:54;;;;;;;;;36.25;32.75;;;;;18.11;34.24;100204.50;4767671;29;45885;-82
2022/03/29 09:09:34;;;;;;;;;35.00;31.50;;;;;18.15;34.84;100198.69;4767893;29;45912;-83
2022/03/29 09:12:16;;;;;;;;;30.00;28.25;;;;;18.17;34.41;100198.53;4767875;29;45717;-83
2022/03/29 09:15:00;;;;;;;;;30.75;28.25;;;;;18.20;34.54;100201.66;4767329;29;45830;-81
2022/03/29 09:17:40;;;;;;;;;35.25;31.00;;;;;18.25;34.76;100195.84;4767515;29;45939;-88
2022/03/29 09:20:10;;;;;;;;;38.00;30.00;;;;;18.29;34.25;100186.59;4767402;29;45956;-83
2022/03/29 09:22:51;;;;;;;;;41.00;33.25;;;;;18.32;34.28;100191.53;4767544;29;45571;-85
2022/03/29 09:25:23;;;;;;;;;38.25;31.00;;;;;18.35;34.17;100192.00;4767472;29;46482;-86
2022/03/29 09:28:04;;;;;;;;;32.75;30.75;;;;;18.38;34.55;100186.38;4767707;29;46132;-85
2022/03/29 09:30:40;;;;;;;;;41.00;33.00;;;;;18.38;34.48;100191.69;4772267;29;45579;-89
2022/03/29 09:33:10;;;;;;;;;37.00;30.75;;;;;18.42;34.67;100187.69;4757531;29;45632;-87
2022/03/29 09:36:20;;;;;;;;;34.00;29.50;;;;;18.41;34.71;100180.72;4774427;29;46517;-86
2022/03/29 09:38:47;;;;;;;;;39.00;30.50;;;;;18.46;34.13;100193.50;4769547;29;46581;-88
2022/03/29 09:41:32;;;;;;;;;39.25;32.25;;;;;18.47;35.04;100184.53;4770575;29;45836;-86
2022/03/29 09:44:19;;;;;;;;;37.25;31.00;;;;;18.50;34.77;100188.69;4770756;29;45682;-86
2022/03/29 09:47:00;;;;;;;;;38.25;31.50;;;;;18.51;35.16;100177.06;4770936;29;45638;-91
2022/03/29 09:49:27;;;;;;;;;39.00;30.00;;;;;18.53;35.01;100172.41;4771640;29;46108;-87
2022/03/29 09:52:10;;;;;;;;;31.25;28.75;;;;;18.58;34.91;100170.94;4771736;29;45803;-88
2022/03/29 09:54:36;;;;;;;;;37.25;32.50;;;;;18.60;34.43;100162.81;4754258;29;45576;-84
2022/03/29 10:00:43;;;;;;;;;43.75;32.50;;;;;18.75;35.00;100163.75;4771517;29;45680;-87
2022/03/29 10:03:09;;;;;;;;;34.25;30.25;;;;;18.81;34.41;100157.75;4772259;29;45854;-85
2022/03/29 10:05:37;;;;;;;;;39.50;33.75;;;;;18.84;34.53;100160.88;4756444;29;45609;-89
2022/03/29 10:10:57;;;;;;;;;44.50;31.00;;;;;18.88;35.00;100157.88;4775337;29;46287;-86
2022/03/29 10:16:45;;;;;;;;;43.00;33.25;;;;;18.91;34.65;100147.72;4771281;29;45857;-88
2022/03/29 10:19:12;;;;;;;;;34.50;31.00;;;;;18.96;34.39;100136.59;4754314;29;47030;-80
2022/03/29 10:21:38;;;;;;;;;38.50;30.50;;;;;18.95;34.26;100130.44;4769609;29;46137;-78
2022/03/29 10:24:05;;;;;;;;;42.75;34.00;;;;;19.02;34.60;100134.06;4769539;29;46058;-78
2022/03/29 10:26:31;;;;;;;;;47.25;35.50;;;;;19.06;34.67;100135.38;4769773;29;45587;-77
2022/03/29 10:32:29;;;;;;;;;40.25;34.00;;;;;19.19;34.38;100127.66;4769380;29;45797;-78
2022/03/29 10:35:05;;;;;;;;;40.50;32.75;;;;;19.23;34.04;100123.63;4769803;29;45773;-77
2022/03/29 10:37:51;;;;;;;;;37.00;32.75;;;;;19.28;33.86;100125.75;4769401;29;45787;-78
2022/03/29 10:40:34;;;;;;;;;42.75;34.00;;;;;19.34;33.85;100125.06;4769047;29;45734;-78
2022/03/29 10:43:28;;;;;;;;;43.50;34.50;;;;;19.40;34.32;100121.69;4752698;29;46621;-79
2022/03/29 10:45:53;;;;;;;;;48.75;35.25;;;;;19.46;33.87;100113.03;4769437;29;45701;-77
2022/03/29 10:48:19;;;;;;;;;47.00;35.00;;;;;19.51;33.90;100109.84;4769299;29;45623;-79
2022/03/29 10:50:55;;;;;;;;;38.75;33.75;;;;;19.61;33.36;100113.09;4769377;29;45695;-80
2022/03/29 10:53:36;;;;;;;;;40.75;32.75;;;;;19.65;33.11;100111.72;4757425;29;46085;-79
2022/03/29 10:56:15;;;;;;;;;45.25;34.75;;;;;19.69;33.08;100113.03;4769212;29;45730;-80
2022/03/29 10:59:02;;;;;;;;;34.00;31.25;;;;;19.74;33.21;100109.81;4752402;29;45705;-76
2022/03/29 11:01:28;;;;;;;;;37.50;32.00;;;;;19.76;32.67;100100.66;4768761;29;45585;-79
2022/03/29 11:04:07;;;;;;;;;41.75;35.00;;;;;19.79;32.42;100097.63;4768810;29;46321;-79
2022/03/29 11:06:34;;;;;;;;;45.00;35.25;;;;;19.80;32.53;100101.97;4752704;29;45703;-77
2022/03/29 11:09:07;;;;;;;;;39.50;31.50;;;;;19.80;33.05;100093.16;4769099;29;45864;-77
2022/03/29 11:11:48;;;;;;;;;41.50;34.50;;;;;19.81;32.33;100098.25;4768592;29;45882;-79
2022/03/29 11:14:35;;;;;;;;;36.25;30.25;;;;;19.83;32.11;100098.91;4768521;29;46100;-77
2022/03/29 11:17:01;;;;;;;;;36.75;32.75;;;;;19.83;32.37;100093.59;4768510;29;45615;-78
2022/03/29 11:19:38;;;;;;;;;45.50;34.25;;;;;19.81;32.29;100082.31;4752259;29;45586;-77
2022/03/29 11:22:23;;;;;;;;;43.25;33.00;;;;;19.83;32.29;100090.94;4768740;29;46391;-78
2022/03/29 11:24:52;;;;;;;;;45.00;34.00;;;;;19.85;32.46;100091.59;4768781;29;46267;-76
2022/03/29 11:27:28;;;;;;;;;39.75;31.50;;;;;19.88;32.41;100085.91;4768777;29;45760;-77
2022/03/29 11:29:55;;;;;;;;;42.25;35.25;;;;;19.94;32.33;100089.66;4768763;29;45820;-79
2022/03/29 11:32:21;;;;;;;;;43.00;33.75;;;;;19.98;32.45;100083.81;4768490;29;46660;-77
2022/03/29 11:34:53;;;;;;;;;45.25;34.00;;;;;20.04;32.42;100079.59;4768410;29;45636;-80
2022/03/29 11:37:33;;;;;;;;;42.00;33.25;;;;;20.12;32.15;100076.84;4768354;29;45608;-77
2022/03/29 11:40:02;;;;;;;;;43.00;33.25;;;;;20.17;32.54;100081.63;4768842;29;45800;-77
2022/03/29 11:45:52;;;;;;;;;44.50;32.75;;;;;20.30;32.21;100081.78;4768179;29;45832;-79
2022/03/29 11:48:21;;;;;;;;;19.75;14.25;;;;;20.38;32.27;100073.75;4768412;29;45858;-78
2022/03/29 11:50:48;;;;;;;;;39.50;32.00;;;;;20.46;32.08;100076.28;4752063;29;46159;-78
2022/03/29 11:53:16;;;;;;;;;38.50;32.25;;;;;20.52;31.58;100070.22;4768325;29;46676;-78
2022/03/29 11:55:41;;;;;;;;;39.25;33.00;;;;;20.57;31.98;100070.50;4768366;29;46255;-78
2022/03/29 12:01:31;;;;;;;;;42.50;33.50;;;;;20.68;31.43;100070.00;4768240;29;45630;-78
2022/03/29 12:04:07;;;;;;;;;44.75;33.75;;;;;20.73;31.62;100064.94;4768251;29;45703;-78
2022/03/29 12:06:46;;;;;;;;;33.25;29.75;;;;;20.76;31.37;100069.91;4767890;29;46337;-78
2022/03/29 12:09:16;;;;;;;;;41.00;33.00;;;;;20.81;31.50;100061.34;4768175;29;45869;-78
2022/03/29 12:11:44;;;;;;;;;36.50;29.00;;;;;20.84;31.59;100056.47;4768412;29;45676;-78
2022/03/29 12:17:31;;;;;;;;;43.25;34.50;;;;;21.00;30.94;100051.94;4767747;29;46119;-78
2022/03/29 12:19:57;;;;;;;;;37.50;32.25;;;;;21.02;31.00;100047.22;4768081;29;45810;-78
2022/03/29 12:22:25;;;;;;;;;37.75;31.75;;;;;21.06;30.91;100049.31;4768420;29;45761;-78
2022/03/29 12:24:55;;;;;;;;;38.00;31.75;;;;;21.08;30.57;100039.31;4767816;29;45572;-78
2022/03/29 12:27:21;;;;;;;;;35.00;30.25;;;;;21.11;30.59;100038.09;4767433;29;46199;-83
2022/03/29 12:33:09;;;;;;;;;32.75;27.50;;;;;21.09;30.45;100034.81;4767856;29;45596;-83
2022/03/29 12:35:35;;;;;;;;;35.50;30.75;;;;;21.04;30.10;100030.06;4751233;29;48413;-82
2022/03/29 12:38:05;;;;;;;;;35.75;30.00;;;;;21.03;30.16;100027.56;4767615;29;46013;-81
2022/03/29 12:40:31;;;;;;;;;34.50;30.25;;;;;20.99;30.15;100031.63;4767649;29;45946;-81
2022/03/29 12:47:31;;;;;;;;;35.00;29.50;;;;;20.85;30.90;100036.00;4765912;29;45782;-83
2022/03/29 12:49:56;;;;;;;;;33.50;28.75;;;;;20.71;31.41;100028.88;4767746;29;46100;-83
2022/03/29 12:52:22;;;;;;;;;33.75;29.50;;;;;20.58;31.19;100028.72;4767652;29;45654;-81
2022/03/29 12:54:53;;;;;;;;;34.50;30.00;;;;;20.47;31.64;100038.03;4751181;29;45798;-81